AirNav   Everest Fuels
 
 1000 users online  

MI79 Executive Heliport
Plymouth/Canton, Michigan, USA

GOING TO PLYMOUTH/CANTON?


FAA INFORMATION EFFECTIVE 10 SEPTEMBER 2020

Location

FAA Identifier: MI79
Lat/Long: 42-20-53.0000N 083-27-14.0000W
42-20.883333N 083-27.233333W
42.3480556,-83.4538889
(estimated)
Elevation: 690 ft. / 210 m (estimated)
Variation: 06W (1990)
From city: 1 mile SE of central business district of the associated city
Time zone: UTC -4 (UTC -5 during Standard Time)
Zip code: 48187

Heliport Operations

Heliport use: Private use. Permission required prior to landing
Activation date: 03/1993
Control tower: no
ARTCC: CLEVELAND CENTER
FSS: LANSING FLIGHT SERVICE STATION
Attendance: MON-FRI 1800-0000
Segmented circle: no

Heliport Communications

WX ASOS at YIP (7 nm SW): PHONE 734-961-6843
WX ASOS at DTW (9 nm SE): PHONE 734-955-5015
WX ASOS at ARB (15 nm SW): 134.55 (734-668-7173)
WX AWOS-3 at VLL (17 nm NE): 119.475 (248-288-4649)
WX ASOS at PTK (19 nm N): 125.025 (248-886-8551)
WX AWOS-3 at ONZ (20 nm SE): 119.675 (734-692-9686)
  • ADDITIONAL UNICOM FREQUENCY: 122.750 / 123.025

Nearby radio navigation aids

VOR radial/distance  VOR name  Freq  Var
SVMr123/7.2SALEM VORTAC114.3003W
DXOr340/9.0DETROIT VOR/DME113.4006W
CRLr004/18.0CARLETON VOR/DME115.7003W
FNTr167/39.3FLINT VORTAC116.9006W

 
NDB name  Hdg/Dist  Freq  Var  ID
GROSSE ILE325/20.041907WRYS .-. -.-- ...
TECUMSEH052/26.923906WTCU - -.-. ..-
ADRIAN050/39.927806WADG .- -.. --.

Heliport Services

Fuel available: A

Runway Information

Helipad H1

Dimensions: 180 x 180 ft. / 55 x 55 m
Surface: concrete
Traffic pattern: leftleft

Heliport Ownership and Management from official FAA records

Ownership: Privately-owned
Owner: MCMAHON HELICOPTERS
8351 RONDA DR
CANTON, MI 48187-2079
Phone 734-459-5980
Manager: NICK MCMAHON
8351 RONDA DR
CANTON, MI 48187-2079
Phone 734-459-5980

Heliport Operational Statistics

Aircraft based on the field: 4
Helicopters: 4
    

Additional Remarks

FOR CD CTC DETROIT APCH AT 800-499-8181.

Instrument Procedures

There are no published instrument procedures at MI79.

Some nearby airports with instrument procedures:

1D2 - Canton-Plymouth-Mettetal Airport (0 nm W)
KYIP - Willow Run Airport (7 nm SW)
KDTW - Detroit Metropolitan Wayne County Airport (9 nm SE)
Y47 - Oakland Southwest Airport (12 nm NW)
KARB - Ann Arbor Municipal Airport (15 nm SW)
KVLL - Oakland/Troy Airport (17 nm NE)
KPTK - Oakland County International Airport (19 nm N)
KONZ - Grosse Ile Municipal Airport (20 nm SE)
 
Loc | Ops | Rwys | IFR | FBO | Links
Com | Nav | Svcs | Stats | Notes
Area around MI79 (Executive Heliport)
 
Road maps at: MapQuest Bing Google
 
Aerial photo
No photo
 
Sectional chart

 
Airport distance calculator
Flying to Executive Heliport? Find the distance to fly.

From to MI79

Sunrise and sunset
Times for 23-Sep-2020
 Local
(UTC-4)
 Zulu
(UTC)
Morning civil twilight06:5610:56
Sunrise07:2411:24
Sunset19:2723:27
Evening civil twilight19:5523:55

Current date and time
Zulu (UTC)  24-Sep-2020 02:28:37
Local (UTC-4)  23-Sep-2020 22:28:37
 
METAR
KYIP 
8nm SW 
240153Z 00000KT 10SM CLR 19/14 A3000 RMK AO2 SLP153 T01890139
KDTW 
9nm SE 
240153Z 25004KT 10SM BKN220 19/13 A2999 RMK AO2 SLP155 T01890133
KARB 
15nm SW 
734-668-7173
240153Z AUTO 26004KT 9SM CLR 14/13 A3000 RMK AO2 SLP156 T01390128
KVLL 
17nm NE 
240215Z AUTO 26004KT 10SM CLR 21/13 A3001 RMK AO2 T02050132
KPTK 
19nm N 
240153Z VRB03KT 10SM OVC200 20/14 RMK SLPNO
KDET 
20nm E 
240153Z 24005KT 10SM CLR 21/13 A2999 RMK AO2 SLP151 T02060133
TAF
KYIP 
8nm SW 
231120Z 2312/2412 21005KT P6SM SKC FM231600 26010KT P6SM SCT200 FM240000 24006KT P6SM FEW200
KDTW 
9nm SE 
232118Z 2321/2424 26008KT P6SM BKN250 FM240000 24004KT P6SM SCT200 FM240900 VRB04KT 6SM HZ SCT200 FM241300 23006KT P6SM FEW200
KPTK 
19nm N 
231720Z 2318/2418 27008KT P6SM SCT200 FM240000 26004KT P6SM SCT200 FM240900 VRB04KT 6SM HZ SCT200 FM241300 25006KT P6SM FEW200
KDET 
20nm E 
231720Z 2318/2418 26010KT P6SM SCT200 FM240000 24004KT P6SM SCT200 FM241300 23006KT P6SM FEW200
NOTAMs
Click for the latest NOTAMs
NOTAMs are issued by the DoD/FAA and will open in a separate window not controlled by AirNav.

 

 
 

Would you like to see your business listed on this page?

 If your business provides an interesting product or service to pilots, flight crews, aircraft, or users of the Executive Heliport, you should consider listing it here.  To start the listing process, click on the button below
 
Add a business
 

Other Pages about Executive Heliport

Update a link
 
Copyright © AirNav, LLC. All rights reserved. Privacy Policy  Contact